»·PEaware :: N259DS KLAX-KSNA

N259DS :: KLAX-KSNA

FLIGHT INFORMATION

Flight Status: Arrived
Operator: Privately registered:
United States
More flights under this callsign
Pilot: Pratham R. (19019)
Aircraft: SOCATA TBM-900
(TBM9)
More flights by this aircraft type
Origin: KLAX Los Angeles Intl
United States
Destination: KSNA John Wayne-Orange Co
United States
More flights between these airports :: More routes between these airports
Route: +SLI8 SLI
File this flight plan on PilotEdge
Remarks: TEC route LAXP34 I-6 Rating
Altitude:
(Current/Filed)
5,000ft
Speed:
(Current/Filed)
180kts
Departed: 21-Jul-19 09:14 PM
Arrived: 21-Jul-19 09:43 PM
Distance/Time
Traveled:
31nm/0:29
Distance/Time
To Go:
Arrived

Flight Plot

Page will automatically refresh every two minutes.

Flight plan parsing failed; only flown route is shown


Map Options




Map Legend


Flown Route
Filed Route
Departure Airport
Arrival Airport
Navaid (VOR, NDB)
Fix

Horizontal Profiles

Position Reports

Time Latitude Longitude Heading Altitude Ground
Speed
21-Jul-19 20:48 33.933536 -118.396947 287 108ft 0kts
21-Jul-19 20:49 33.933536 -118.396947 287 108ft 0kts
21-Jul-19 20:50 33.933536 -118.396947 287 108ft 0kts
21-Jul-19 20:51 33.933536 -118.396947 287 108ft 0kts
21-Jul-19 20:52 33.933536 -118.396947 287 108ft 0kts
21-Jul-19 20:53 33.933536 -118.396947 287 108ft 0kts
21-Jul-19 20:54 33.933536 -118.396947 287 108ft 0kts
21-Jul-19 20:55 33.933536 -118.396947 287 108ft 0kts
21-Jul-19 20:56 33.933536 -118.396947 287 108ft 0kts
21-Jul-19 20:57 33.933536 -118.396947 287 108ft 0kts
21-Jul-19 20:58 33.933536 -118.396947 287 108ft 0kts
21-Jul-19 20:59 33.933538 -118.396953 287 108ft 1kts
21-Jul-19 21:00 33.933674 -118.397480 287 108ft 0kts
21-Jul-19 21:01 33.933698 -118.397574 287 108ft 0kts
21-Jul-19 21:02 33.933749 -118.397776 286 108ft 4kts
21-Jul-19 21:03 33.934712 -118.396467 83 105ft 9kts
21-Jul-19 21:04 33.935091 -118.392885 84 101ft 15kts
21-Jul-19 21:05 33.935335 -118.391012 68 102ft 3kts
21-Jul-19 21:06 33.935483 -118.390769 349 102ft 0kts
21-Jul-19 21:07 33.935656 -118.387435 82 98ft 11kts
21-Jul-19 21:08 33.935992 -118.384235 81 97ft 8kts
21-Jul-19 21:09 33.936061 -118.383494 82 96ft 0kts
21-Jul-19 21:10 33.936061 -118.383493 82 96ft 0kts
21-Jul-19 21:11 33.936098 -118.383152 83 95ft 2kts
21-Jul-19 21:12 33.937295 -118.383210 274 95ft 5kts
21-Jul-19 21:13 33.934385 -118.411953 261 1391ft 127kts
21-Jul-19 21:14 33.917426 -118.455054 213 3210ft 172kts
21-Jul-19 21:15 33.875356 -118.487712 213 4837ft 186kts
21-Jul-19 21:16 33.824658 -118.474463 142 4981ft 234kts
21-Jul-19 21:17 33.773503 -118.422474 142 4965ft 243kts
21-Jul-19 21:18 33.721712 -118.369709 141 4966ft 245kts
21-Jul-19 21:19 33.671097 -118.317758 136 4957ft 235kts
21-Jul-19 21:20 33.693465 -118.258673 53 4953ft 218kts
21-Jul-19 21:21 33.722486 -118.195363 62 4962ft 214kts
21-Jul-19 21:22 33.749822 -118.132220 62 4665ft 205kts
21-Jul-19 21:23 33.775086 -118.073779 62 3955ft 186kts
21-Jul-19 21:24 33.797363 -118.021228 62 3966ft 173kts
21-Jul-19 21:25 33.818933 -117.970008 62 3962ft 170kts
21-Jul-19 21:26 33.840099 -117.918979 62 3961ft 169kts
21-Jul-19 21:27 33.860908 -117.867995 62 3960ft 168kts
21-Jul-19 21:28 33.881541 -117.817341 62 3961ft 168kts
21-Jul-19 21:29 33.902193 -117.766669 62 3968ft 167kts
21-Jul-19 21:30 33.922883 -117.715980 61 3976ft 168kts
21-Jul-19 21:31 33.961892 -117.686700 25 3982ft 168kts
21-Jul-19 21:32 34.000606 -117.685711 282 3985ft 158kts
21-Jul-19 21:33 33.968385 -117.695939 164 3987ft 166kts
21-Jul-19 21:34 33.926937 -117.709704 214 3980ft 163kts
21-Jul-19 21:35 33.886447 -117.735377 209 3977ft 164kts
21-Jul-19 21:36 33.845450 -117.761302 208 3653ft 169kts
21-Jul-19 21:37 33.803561 -117.787819 209 2749ft 170kts
21-Jul-19 21:38 33.761612 -117.814392 208 1841ft 169kts
21-Jul-19 21:39 33.723656 -117.838461 209 1022ft 137kts
21-Jul-19 21:40 33.698695 -117.854166 209 523ft 93kts
21-Jul-19 21:41 33.677944 -117.867441 209 62ft 64kts
21-Jul-19 21:42 33.672242 -117.871590 261 59ft 6kts
21-Jul-19 21:43 33.674069 -117.871333 28 59ft 5kts
21-Jul-19 21:44 33.674757 -117.871714 20 59ft 2kts
21-Jul-19 21:45 33.674829 -117.871664 34 59ft 0kts
21-Jul-19 21:46 33.674829 -117.871664 34 59ft 0kts
21-Jul-19 21:47 33.674829 -117.871664 34 59ft 0kts

Navigation Log

Ident Type
Flight plan parsing failed, navigation log unavailable